createdAt,value
2018-05-11T00:00:13.344Z,7.67
2018-05-11T00:02:40.827Z,8.97
2018-05-11T00:05:08.293Z,8.17
2018-05-11T00:07:35.776Z,14.37
2018-05-11T00:10:03.254Z,10.50
2018-05-11T00:12:30.737Z,7.57
2018-05-11T00:14:58.230Z,8.10
2018-05-11T00:17:26.505Z,8.03
2018-05-11T00:19:54.745Z,13.73
2018-05-11T00:22:22.237Z,8.53
2018-05-11T00:24:50.475Z,7.53
2018-05-11T00:27:17.997Z,10.53
2018-05-11T00:29:45.461Z,10.73
2018-05-11T00:32:12.934Z,8.67
2018-05-11T00:34:40.421Z,13.23
2018-05-11T00:37:09.398Z,15.07
2018-05-11T00:39:36.886Z,10.10
2018-05-11T00:42:04.365Z,9.50
2018-05-11T00:44:31.856Z,8.47
2018-05-11T00:46:59.329Z,8.00
2018-05-11T00:49:26.817Z,11.60
2018-05-11T00:51:55.050Z,8.17
2018-05-11T00:54:22.876Z,7.60
2018-05-11T00:56:50.337Z,6.53
2018-05-11T00:59:17.833Z,11.13
2018-05-11T01:01:45.345Z,10.30
2018-05-11T01:04:12.809Z,9.13
2018-05-11T01:06:40.294Z,10.77
2018-05-11T01:09:07.769Z,9.50
2018-05-11T01:11:35.236Z,10.70
2018-05-11T01:14:03.488Z,12.53
2018-05-11T01:16:30.955Z,13.00
2018-05-11T01:18:58.455Z,8.50
2018-05-11T01:21:25.937Z,11.13
2018-05-11T01:23:53.402Z,11.87
2018-05-11T01:26:20.887Z,8.80
2018-05-11T01:28:49.121Z,10.90
2018-05-11T01:31:17.063Z,9.53
2018-05-11T01:33:44.521Z,7.80
2018-05-11T01:36:12.388Z,11.63
2018-05-11T01:38:39.853Z,8.43
2018-05-11T01:41:07.329Z,9.43
2018-05-11T01:43:34.793Z,8.77
2018-05-11T01:46:02.273Z,7.67
2018-05-11T01:48:30.500Z,8.50
2018-05-11T01:50:57.980Z,12.70
2018-05-11T01:53:25.445Z,11.30
2018-05-11T01:55:52.909Z,13.23
2018-05-11T01:58:20.390Z,12.50
2018-05-11T02:00:47.964Z,12.93
2018-05-11T02:03:15.451Z,11.77
2018-05-11T02:05:42.978Z,10.57
2018-05-11T02:08:10.445Z,9.27
2018-05-11T02:10:37.927Z,8.33
2018-05-11T02:13:05.391Z,10.87
2018-05-11T02:15:32.901Z,11.43
2018-05-11T02:18:00.368Z,12.30
2018-05-11T02:20:27.833Z,12.63
2018-05-11T02:22:55.313Z,11.83
2018-05-11T02:25:22.793Z,15.00
2018-05-11T02:27:51.049Z,11.60
2018-05-11T02:30:18.513Z,14.23
2018-05-11T02:32:45.973Z,10.97
2018-05-11T02:35:13.465Z,18.17
2018-05-11T02:37:40.933Z,11.03
2018-05-11T02:40:08.410Z,11.00
2018-05-11T02:42:35.884Z,12.63
2018-05-11T02:45:03.388Z,13.27
2018-05-11T02:47:30.854Z,12.30
2018-05-11T02:49:58.334Z,12.37
2018-05-11T02:52:25.802Z,13.17
2018-05-11T02:54:53.298Z,15.63
2018-05-11T02:57:20.766Z,14.80
2018-05-11T02:59:48.245Z,15.27
2018-05-11T03:02:15.725Z,12.13
2018-05-11T03:04:43.190Z,17.83
2018-05-11T03:07:10.690Z,12.43
2018-05-11T03:09:38.167Z,12.90
2018-05-11T03:12:05.638Z,13.10
2018-05-11T03:14:33.132Z,13.10
2018-05-11T03:17:01.365Z,12.03
2018-05-11T03:19:28.845Z,9.03
2018-05-11T03:21:56.316Z,18.23
2018-05-11T03:24:24.549Z,15.83
2018-05-11T03:26:52.030Z,15.30
2018-05-11T03:29:19.495Z,17.27
2018-05-11T03:31:46.997Z,16.00
2018-05-11T03:34:14.486Z,11.87
2018-05-11T03:36:41.959Z,17.27
2018-05-11T03:39:09.438Z,15.60
2018-05-11T03:41:37.692Z,16.43
2018-05-11T03:44:05.187Z,10.23
2018-05-11T03:46:32.700Z,12.60
2018-05-11T03:49:00.161Z,17.40
2018-05-11T03:51:27.990Z,19.63
2018-05-11T03:53:55.457Z,19.17
2018-05-11T03:56:22.957Z,12.17
2018-05-11T03:58:51.188Z,11.53
2018-05-11T04:01:30.621Z,15.90
2018-05-11T04:04:10.109Z,16.17
2018-05-11T04:06:50.397Z,16.77
2018-05-11T04:09:17.861Z,16.10
2018-05-11T04:11:45.333Z,16.30
2018-05-11T04:14:12.825Z,17.40
2018-05-11T04:16:41.062Z,17.63
2018-05-11T04:19:08.856Z,13.60
2018-05-11T04:21:37.102Z,15.20
2018-05-11T04:24:04.573Z,15.00
2018-05-11T04:26:32.249Z,16.43
2018-05-11T04:29:00.482Z,13.57
2018-05-11T04:31:27.965Z,13.63
2018-05-11T04:33:56.216Z,15.67
2018-05-11T04:36:23.684Z,16.57
2018-05-11T04:38:51.173Z,20.90
2018-05-11T04:41:19.573Z,11.87
2018-05-11T04:43:47.060Z,13.33
2018-05-11T04:46:14.527Z,14.30
2018-05-11T04:48:41.997Z,13.70
2018-05-11T04:51:09.477Z,7.83
2018-05-11T04:53:37.716Z,14.93
2018-05-11T04:56:05.226Z,9.43
2018-05-11T04:58:32.715Z,13.13
2018-05-11T05:01:00.191Z,12.67
2018-05-11T05:03:27.705Z,13.53
2018-05-11T05:05:55.182Z,13.57
2018-05-11T05:08:22.707Z,13.10
2018-05-11T05:10:50.198Z,13.47
2018-05-11T05:13:17.725Z,11.23
2018-05-11T05:15:45.209Z,9.03
2018-05-11T05:18:13.149Z,10.93
2018-05-11T05:20:40.645Z,11.70
2018-05-11T05:23:08.128Z,9.67
2018-05-11T05:25:36.366Z,14.10
2018-05-11T05:28:03.853Z,8.73
2018-05-11T05:30:32.107Z,11.93
2018-05-11T05:32:59.624Z,10.90
2018-05-11T05:35:27.092Z,7.17
2018-05-11T05:37:54.560Z,11.27
2018-05-11T05:40:22.093Z,11.63
2018-05-11T05:42:49.564Z,11.57
2018-05-11T05:45:17.051Z,9.10
2018-05-11T05:47:44.525Z,12.63
2018-05-11T05:50:12.769Z,14.43
2018-05-11T05:52:40.260Z,11.93
2018-05-11T05:55:08.503Z,11.90
2018-05-11T05:57:36.371Z,13.20
2018-05-11T06:00:04.626Z,14.53
2018-05-11T06:02:32.138Z,11.17
2018-05-11T06:04:59.604Z,10.73
2018-05-11T06:07:27.093Z,11.57
2018-05-11T06:09:54.599Z,15.63
2018-05-11T06:12:22.837Z,15.80
2018-05-11T06:14:50.309Z,10.97
2018-05-11T06:17:17.809Z,11.47
2018-05-11T06:19:45.294Z,14.43
2018-05-11T06:22:12.831Z,12.70
2018-05-11T06:24:40.313Z,14.13
2018-05-11T06:27:07.805Z,13.97
2018-05-11T06:29:36.060Z,14.47
2018-05-11T06:32:03.645Z,12.30
2018-05-11T06:34:31.984Z,10.87
2018-05-11T06:37:00.186Z,15.20
2018-05-11T06:39:27.693Z,11.40
2018-05-11T06:41:55.240Z,12.23
2018-05-11T06:44:22.775Z,12.33
2018-05-11T06:46:51.239Z,12.27
2018-05-11T06:49:18.725Z,14.03
2018-05-11T06:51:46.205Z,16.30
2018-05-11T06:54:13.752Z,13.37
2018-05-11T06:56:41.217Z,17.10
2018-05-11T06:59:09.038Z,18.77
2018-05-11T07:01:37.309Z,18.37
2018-05-11T07:04:05.520Z,15.63
2018-05-11T07:06:33.060Z,13.53
2018-05-11T07:09:00.565Z,16.10
2018-05-11T07:11:28.075Z,14.77
2018-05-11T07:13:55.569Z,16.17
2018-05-11T07:16:23.056Z,17.53
2018-05-11T07:18:51.311Z,21.13
2018-05-11T07:21:18.781Z,15.67
2018-05-11T07:23:46.529Z,17.90
2018-05-11T07:26:14.011Z,18.93
2018-05-11T07:28:42.260Z,18.27
2018-05-11T07:31:09.769Z,22.73
2018-05-11T07:33:37.258Z,19.70
2018-05-11T07:36:04.761Z,23.67
2018-05-11T07:38:33.013Z,21.33
2018-05-11T07:41:00.489Z,21.90
2018-05-11T07:43:27.996Z,23.60
2018-05-11T07:45:55.552Z,20.83
2018-05-11T07:48:23.052Z,24.77
2018-05-11T07:50:50.546Z,21.67
2018-05-11T07:53:18.037Z,24.80
2018-05-11T07:55:45.525Z,22.63
2018-05-11T07:58:13.084Z,24.83
2018-05-11T08:00:40.577Z,26.73
2018-05-11T08:03:08.066Z,30.40
2018-05-11T08:05:35.540Z,25.37
2018-05-11T08:08:03.049Z,26.50
2018-05-11T08:10:30.526Z,25.90
2018-05-11T08:12:58.047Z,29.47
2018-05-11T08:15:26.289Z,32.77
2018-05-11T08:17:53.782Z,30.23
2018-05-11T08:20:22.041Z,28.50
2018-05-11T08:22:49.590Z,28.63
2018-05-11T08:25:17.566Z,29.03
2018-05-11T08:27:45.877Z,31.80
2018-05-11T08:30:13.376Z,31.07
2018-05-11T08:32:40.868Z,27.23
2018-05-11T08:35:08.349Z,22.97
2018-05-11T08:37:35.857Z,30.43
2018-05-11T08:40:03.342Z,24.33
2018-05-11T08:42:30.813Z,31.50
2018-05-11T08:44:58.330Z,24.40
2018-05-11T08:47:25.807Z,27.73
2018-05-11T08:49:53.657Z,25.23
2018-05-11T08:52:21.918Z,28.43
2018-05-11T08:54:49.397Z,26.67
2018-05-11T08:57:16.955Z,21.63
2018-05-11T08:59:44.404Z,27.33
2018-05-11T09:02:11.924Z,31.07
2018-05-11T09:04:39.414Z,27.97
2018-05-11T09:07:07.662Z,30.30
2018-05-11T09:09:35.157Z,26.03
2018-05-11T09:12:03.398Z,27.73
2018-05-11T09:14:31.185Z,29.33
2018-05-11T09:16:59.429Z,29.53
2018-05-11T09:19:26.921Z,26.13
2018-05-11T09:21:55.187Z,23.37
2018-05-11T09:24:23.434Z,25.13
2018-05-11T09:26:50.935Z,26.60
2018-05-11T09:29:18.417Z,25.63
2018-05-11T09:31:48.483Z,27.90
2018-05-11T09:34:17.956Z,25.30
2018-05-11T09:36:45.477Z,25.47
2018-05-11T09:39:12.953Z,29.53
2018-05-11T09:41:40.517Z,27.47
2018-05-11T09:44:08.001Z,28.57
2018-05-11T09:46:35.481Z,29.27
2018-05-11T09:49:03.736Z,28.53
2018-05-11T09:51:31.220Z,26.27
2018-05-11T09:53:59.480Z,22.43
2018-05-11T09:56:27.725Z,23.63
2018-05-11T09:58:55.221Z,26.77
2018-05-11T10:01:23.478Z,23.27
2018-05-11T10:03:50.988Z,23.40
2018-05-11T10:06:18.517Z,23.60
2018-05-11T10:08:47.026Z,22.83
2018-05-11T10:11:16.385Z,22.93
2018-05-11T10:13:43.906Z,21.93
2018-05-11T10:16:11.457Z,19.73
2018-05-11T10:18:38.945Z,21.53
2018-05-11T10:21:06.422Z,23.20
2018-05-11T10:23:34.685Z,23.17
2018-05-11T10:26:02.945Z,23.73
2018-05-11T10:28:30.450Z,21.27
2018-05-11T10:30:57.926Z,18.57
2018-05-11T10:33:25.405Z,20.83
2018-05-11T10:35:53.680Z,23.03
2018-05-11T10:38:21.158Z,23.80
2018-05-11T10:40:49.437Z,22.80
2018-05-11T10:43:17.735Z,17.63
2018-05-11T10:45:45.237Z,17.93
2018-05-11T10:48:12.739Z,17.30
2018-05-11T10:50:40.231Z,17.97
2018-05-11T10:53:07.727Z,17.77
2018-05-11T10:55:35.999Z,19.73
2018-05-11T10:58:03.486Z,17.33
2018-05-11T11:00:31.003Z,18.80
2018-05-11T11:02:58.485Z,19.60
2018-05-11T11:05:26.753Z,18.93
2018-05-11T11:07:55.004Z,18.20
2018-05-11T11:10:22.497Z,17.70
2018-05-11T11:12:50.736Z,17.83
2018-05-11T11:15:18.289Z,18.20
2018-05-11T11:17:45.761Z,19.53
2018-05-11T11:20:13.232Z,17.50
2018-05-11T11:22:40.745Z,21.60
2018-05-11T11:25:08.229Z,15.10
2018-05-11T11:27:35.721Z,19.90
2018-05-11T11:30:03.201Z,18.27
2018-05-11T11:32:30.738Z,19.43
2018-05-11T11:35:00.177Z,20.47
2018-05-11T11:37:27.668Z,21.93
2018-05-11T11:39:55.141Z,23.17
2018-05-11T11:42:23.408Z,16.90
2018-05-11T11:44:51.649Z,17.33
2018-05-11T11:47:19.148Z,19.97
2018-05-11T11:49:47.389Z,21.50
2018-05-11T11:52:14.869Z,18.97
2018-05-11T11:54:43.134Z,18.80
2018-05-11T11:57:10.622Z,19.00
2018-05-11T11:59:38.143Z,16.37
2018-05-11T12:02:05.636Z,15.30
2018-05-11T12:04:33.117Z,15.63
2018-05-11T12:07:00.610Z,13.27
2018-05-11T12:09:28.093Z,12.53
2018-05-11T12:11:55.885Z,13.00
2018-05-11T12:14:23.365Z,14.20
2018-05-11T12:16:50.841Z,14.60
2018-05-11T12:19:18.357Z,11.63
2018-05-11T12:21:45.829Z,11.50
2018-05-11T12:24:13.326Z,16.53
2018-05-11T12:26:41.565Z,16.27
2018-05-11T12:29:09.045Z,14.30
2018-05-11T12:31:36.568Z,15.23
2018-05-11T12:34:04.072Z,10.40
2018-05-11T12:36:32.541Z,13.00
2018-05-11T12:39:00.016Z,13.33
2018-05-11T12:41:27.489Z,11.40
2018-05-11T12:43:54.984Z,10.40
2018-05-11T12:46:22.473Z,11.07
2018-05-11T12:48:50.742Z,7.67
2018-05-11T12:51:18.977Z,11.53
2018-05-11T12:53:46.517Z,9.77
2018-05-11T12:56:14.021Z,12.60
2018-05-11T12:58:42.277Z,10.83
2018-05-11T13:01:10.010Z,10.87
2018-05-11T13:03:37.493Z,9.53
2018-05-11T13:06:04.969Z,9.67
2018-05-11T13:08:32.565Z,13.53
2018-05-11T13:11:00.042Z,8.37
2018-05-11T13:13:27.540Z,8.93
2018-05-11T13:15:55.017Z,11.27
2018-05-11T13:18:23.267Z,10.87
2018-05-11T13:20:51.560Z,13.63
2018-05-11T13:23:19.007Z,12.03
2018-05-11T13:25:46.495Z,8.60
2018-05-11T13:28:13.973Z,9.27
2018-05-11T13:30:41.540Z,9.80
2018-05-11T13:33:09.029Z,10.83
2018-05-11T13:35:37.279Z,7.30
2018-05-11T13:38:04.764Z,7.00
2018-05-11T13:40:33.038Z,9.80
2018-05-11T13:43:01.311Z,7.80
2018-05-11T13:45:28.809Z,7.97
2018-05-11T13:47:56.301Z,7.87
2018-05-11T13:50:23.851Z,6.87
2018-05-11T13:52:51.328Z,7.63
2018-05-11T13:55:19.174Z,7.60
2018-05-11T13:57:46.661Z,7.67
2018-05-11T14:00:14.136Z,6.20
2018-05-11T14:02:42.569Z,8.80
2018-05-11T14:05:10.074Z,5.93
2018-05-11T14:07:38.719Z,6.57
2018-05-11T14:10:06.279Z,6.53
2018-05-11T14:12:33.761Z,5.23
2018-05-11T14:15:02.112Z,8.93
2018-05-11T14:17:29.577Z,6.37
2018-05-11T14:19:57.303Z,6.27
2018-05-11T14:22:24.861Z,7.03
2018-05-11T14:24:52.425Z,6.30
2018-05-11T14:27:20.129Z,5.80
2018-05-11T14:29:48.865Z,4.87
2018-05-11T14:32:16.366Z,6.37
2018-05-11T14:34:44.639Z,6.07
2018-05-11T14:37:13.883Z,5.67
2018-05-11T14:39:41.901Z,4.90
2018-05-11T14:42:09.368Z,5.57
2018-05-11T14:44:37.630Z,5.33
2018-05-11T14:47:05.239Z,6.13
2018-05-11T14:49:32.746Z,5.63
2018-05-11T14:52:00.194Z,8.70
2018-05-11T14:54:28.454Z,9.90
2018-05-11T14:56:55.937Z,8.07
2018-05-11T14:59:23.456Z,5.57
2018-05-11T15:01:50.937Z,7.03
2018-05-11T15:04:18.425Z,4.40
2018-05-11T15:06:46.673Z,6.83
2018-05-11T15:09:14.143Z,5.13
2018-05-11T15:11:42.409Z,3.53
2018-05-11T15:14:09.877Z,4.67
2018-05-11T15:16:37.349Z,6.23
2018-05-11T15:19:05.040Z,4.57
2018-05-11T15:21:32.749Z,5.80
2018-05-11T15:24:00.238Z,4.53
2018-05-11T15:26:27.706Z,4.97
2018-05-11T15:28:55.189Z,4.30
2018-05-11T15:31:22.683Z,6.43
2018-05-11T15:33:50.996Z,3.93
2018-05-11T15:36:18.569Z,5.00
2018-05-11T15:38:46.065Z,5.70
2018-05-11T15:41:13.537Z,6.70
2018-05-11T15:43:41.789Z,6.93
2018-05-11T15:46:09.256Z,4.40
2018-05-11T15:48:36.747Z,5.93
2018-05-11T15:51:04.236Z,6.40
2018-05-11T15:53:31.724Z,7.03
2018-05-11T15:55:59.194Z,4.03
2018-05-11T15:58:27.441Z,5.93
2018-05-11T16:00:54.917Z,5.10
2018-05-11T16:03:23.182Z,4.70
2018-05-11T16:05:50.654Z,3.90
2018-05-11T16:08:18.889Z,5.93
2018-05-11T16:10:46.385Z,6.80
2018-05-11T16:13:14.711Z,4.90
2018-05-11T16:15:42.112Z,4.37
2018-05-11T16:18:10.349Z,5.20
2018-05-11T16:20:37.824Z,5.17
2018-05-11T16:23:05.328Z,6.40
2018-05-11T16:25:32.849Z,4.77
2018-05-11T16:28:00.334Z,6.67
2018-05-11T16:30:27.806Z,6.17
2018-05-11T16:32:55.286Z,6.57
2018-05-11T16:35:22.792Z,4.20
2018-05-11T16:37:51.023Z,4.27
2018-05-11T16:40:18.525Z,3.10
2018-05-11T16:42:46.760Z,4.33
2018-05-11T16:45:14.230Z,6.30
2018-05-11T16:47:41.713Z,4.27
2018-05-11T16:50:09.991Z,5.87
2018-05-11T16:52:38.286Z,5.10
2018-05-11T16:55:05.777Z,4.50
2018-05-11T16:57:33.248Z,5.67
2018-05-11T17:00:00.743Z,8.10
2018-05-11T17:02:28.232Z,4.50
2018-05-11T17:04:56.050Z,3.10
2018-05-11T17:07:24.282Z,5.40
2018-05-11T17:09:51.749Z,6.50
2018-05-11T17:12:19.232Z,3.47
2018-05-11T17:14:47.511Z,3.23
2018-05-11T17:17:15.797Z,5.73
2018-05-11T17:19:44.033Z,4.47
2018-05-11T17:22:11.497Z,4.30
2018-05-11T17:24:39.769Z,8.23
2018-05-11T17:27:07.240Z,5.70
2018-05-11T17:29:35.513Z,3.53
2018-05-11T17:32:03.035Z,7.83
2018-05-11T17:34:30.523Z,2.43
2018-05-11T17:36:58.785Z,3.93
2018-05-11T17:39:26.251Z,4.40
2018-05-11T17:41:54.529Z,5.70
2018-05-11T17:44:22.009Z,4.83
2018-05-11T17:46:49.487Z,9.23
2018-05-11T17:49:17.005Z,6.23
2018-05-11T17:51:45.250Z,5.57
2018-05-11T17:54:13.040Z,6.47
2018-05-11T17:56:40.532Z,6.23
2018-05-11T17:59:08.015Z,4.20
2018-05-11T18:01:35.501Z,6.80
2018-05-11T18:04:02.990Z,7.70
2018-05-11T18:06:30.809Z,3.30
2018-05-11T18:08:58.993Z,5.30
2018-05-11T18:11:26.461Z,6.17
2018-05-11T18:13:53.963Z,9.37
2018-05-11T18:16:21.453Z,4.80
2018-05-11T18:18:48.936Z,6.20
2018-05-11T18:21:17.193Z,4.27
2018-05-11T18:23:44.653Z,4.63
2018-05-11T18:26:12.140Z,7.43
2018-05-11T18:28:40.432Z,5.63
2018-05-11T18:31:07.917Z,5.83
2018-05-11T18:33:35.430Z,5.77
2018-05-11T18:36:02.905Z,5.40
2018-05-11T18:38:30.410Z,8.23
2018-05-11T18:40:57.877Z,5.13
2018-05-11T18:43:26.125Z,5.53
2018-05-11T18:45:53.744Z,5.80
2018-05-11T18:48:21.393Z,7.87
2018-05-11T18:50:48.919Z,9.03
2018-05-11T18:53:16.662Z,5.97
2018-05-11T18:55:43.873Z,9.13
2018-05-11T18:58:11.366Z,5.90
2018-05-11T19:00:38.845Z,4.63
2018-05-11T19:03:06.340Z,6.20
2018-05-11T19:05:33.847Z,4.27
2018-05-11T19:08:01.323Z,4.50
2018-05-11T19:10:29.573Z,4.70
2018-05-11T19:12:57.042Z,5.07
2018-05-11T19:15:24.568Z,5.50
2018-05-11T19:17:52.103Z,6.73
2018-05-11T19:20:20.301Z,6.37
2018-05-11T19:22:47.761Z,5.93
2018-05-11T19:25:15.261Z,7.10
2018-05-11T19:27:43.505Z,6.50
2018-05-11T19:30:10.990Z,8.87
2018-05-11T19:32:38.551Z,6.73
2018-05-11T19:35:05.969Z,5.03
2018-05-11T19:37:33.448Z,7.43
2018-05-11T19:40:01.701Z,4.83
2018-05-11T19:42:29.341Z,4.70
2018-05-11T19:44:56.720Z,5.27
2018-05-11T19:47:24.214Z,6.30
2018-05-11T19:49:51.685Z,5.73
2018-05-11T19:52:19.194Z,5.93
2018-05-11T19:54:47.442Z,5.20
2018-05-11T19:57:15.029Z,6.30
2018-05-11T19:59:43.657Z,5.00
2018-05-11T20:02:11.136Z,6.20
2018-05-11T20:04:38.695Z,6.53
2018-05-11T20:07:06.139Z,5.90
2018-05-11T20:09:33.629Z,9.00
2018-05-11T20:12:01.134Z,7.70
2018-05-11T20:14:28.649Z,7.30
2018-05-11T20:16:56.155Z,4.97
2018-05-11T20:19:23.640Z,4.70
2018-05-11T20:21:51.136Z,7.57
2018-05-11T20:24:19.389Z,6.03
2018-05-11T20:26:47.666Z,8.87
2018-05-11T20:29:15.177Z,5.70
2018-05-11T20:31:42.692Z,7.23
2018-05-11T20:34:10.936Z,8.57
2018-05-11T20:36:38.689Z,8.60
2018-05-11T20:39:06.153Z,6.90
2018-05-11T20:41:33.685Z,7.93
2018-05-11T20:44:01.189Z,7.73
2018-05-11T20:46:28.678Z,6.07
2018-05-11T20:48:56.198Z,9.00
2018-05-11T20:51:23.685Z,6.10
2018-05-11T20:53:51.952Z,6.57
2018-05-11T20:56:19.443Z,8.23
2018-05-11T20:58:46.927Z,7.10
2018-05-11T21:01:14.413Z,6.30
2018-05-11T21:03:42.659Z,6.97
2018-05-11T21:06:10.158Z,6.97
2018-05-11T21:08:38.413Z,5.87
2018-05-11T21:11:05.894Z,5.73
2018-05-11T21:13:33.378Z,6.60
2018-05-11T21:16:00.862Z,5.27
2018-05-11T21:18:28.374Z,6.40
2018-05-11T21:20:55.837Z,4.37
2018-05-11T21:23:23.319Z,7.43
2018-05-11T21:25:50.807Z,11.43
2018-05-11T21:28:18.289Z,7.07
2018-05-11T21:30:46.132Z,6.27
2018-05-11T21:33:14.390Z,7.20
2018-05-11T21:35:42.623Z,7.17
2018-05-11T21:38:10.114Z,7.53
2018-05-11T21:40:37.581Z,7.90
2018-05-11T21:43:05.073Z,5.63
2018-05-11T21:45:32.545Z,8.20
2018-05-11T21:48:00.010Z,6.80
2018-05-11T21:50:27.497Z,7.77
2018-05-11T21:52:54.966Z,6.53
2018-05-11T21:55:22.447Z,5.90
2018-05-11T21:57:49.933Z,5.53
2018-05-11T22:00:17.411Z,7.07
2018-05-11T22:02:44.896Z,7.47
2018-05-11T22:05:12.385Z,7.53
2018-05-11T22:07:39.881Z,6.13
2018-05-11T22:10:07.345Z,8.87
2018-05-11T22:12:34.814Z,8.93
2018-05-11T22:15:02.307Z,6.97
2018-05-11T22:17:29.777Z,7.10
2018-05-11T22:19:57.260Z,7.60
2018-05-11T22:22:24.729Z,6.97
2018-05-11T22:24:52.218Z,7.20
2018-05-11T22:27:20.454Z,7.57
2018-05-11T22:29:47.947Z,8.00
2018-05-11T22:32:16.181Z,7.30
2018-05-11T22:34:43.645Z,9.33
2018-05-11T22:37:11.142Z,7.33
2018-05-11T22:39:38.613Z,12.73
2018-05-11T22:42:06.136Z,6.77
2018-05-11T22:44:34.373Z,6.80
2018-05-11T22:47:01.877Z,6.03
2018-05-11T22:49:30.170Z,8.73
2018-05-11T22:51:58.401Z,8.63
2018-05-11T22:54:25.870Z,8.53
2018-05-11T22:56:54.125Z,10.10
2018-05-11T22:59:21.621Z,9.90
2018-05-11T23:01:49.105Z,6.27
2018-05-11T23:04:16.594Z,9.07
2018-05-11T23:06:44.836Z,7.57
2018-05-11T23:09:12.329Z,8.47
2018-05-11T23:11:39.818Z,8.00
2018-05-11T23:14:07.310Z,6.40
2018-05-11T23:19:06.066Z,6.37
2018-05-11T23:21:34.637Z,8.83
2018-05-11T23:24:02.869Z,6.40
2018-05-11T23:26:30.337Z,6.53
2018-05-11T23:28:57.925Z,7.57
2018-05-11T23:31:26.158Z,8.30
2018-05-11T23:33:53.689Z,10.33
2018-05-11T23:36:21.158Z,7.13
2018-05-11T23:38:48.706Z,9.17
2018-05-11T23:41:16.185Z,7.43
2018-05-11T23:43:43.658Z,6.57
2018-05-11T23:46:11.148Z,8.23
2018-05-11T23:48:38.731Z,8.10
2018-05-11T23:51:06.561Z,9.93
2018-05-11T23:53:34.793Z,9.67
2018-05-11T23:56:02.290Z,10.43
2018-05-11T23:58:30.533Z,8.93
